Weather at Kadriye Airstrip

Public forecast

Using degrees Celsius for public forecast. Weather courtesy of forecast.io.

Closest aviation weather report (METAR) to Kadriye Airstrip

Report is more than 6 hours old.

Closest report is Antalya International Airport, 7.8 nm (14.5 km) W.

2022/11/14 15:20 (retrieved 2 years ago)

LTAI 141520Z 19002KT CAVOK 18/06 Q1017 NOSIG RMK RWY18C VRB02KT RWY36R VRB01KT RWY18L 16003KT

Closest aviation forecast (TAF) to Kadriye Airstrip

Forecast is more than 12 hours old.

Closest forecast is Antalya International Airport, 7.8 nm (14.5 km) W.

2023/02/22 18:03 (retrieved 1 year ago)

TAF LTAI 221640Z 2218/2318 34006KT 9999 FEW030 BECMG 2219/2222 CAVOK BECMG 2308/2311 18010KT FEW030 BECMG 2315/2318 34006KT